Time;durP1;ratioP1;P1;durP2;ratioP2;P2;SDS_P1;SDS_P2;PMS_P1;PMS_P2;Temp;Humidity;BMP_temperature;BMP_pressure;BME280_temperature;BME280_humidity;BME280_pressure;Samples;Min_cycle;Max_cycle;Signal;HPM_P1;HPM_P2
2023/04/03 00:02:43;;;;;;;8.30;4.90;;;;;;;1.91;81.81;101187.77;180810;1263;58362;-85
2023/04/03 00:06:47;;;;;;;10.40;4.80;;;;;;;1.96;81.30;101190.95;180792;1263;44168;-85
2023/04/03 00:10:50;;;;;;;9.70;5.30;;;;;;;2.05;82.00;101192.95;180849;1263;44228;-85
2023/04/03 00:14:53;;;;;;;4.40;3.10;;;;;;;2.09;81.82;101191.60;180682;1263;44042;-85
2023/04/03 00:18:56;;;;;;;5.90;2.90;;;;;;;2.12;81.11;101190.10;180774;1263;44146;-85
2023/04/03 00:23:01;;;;;;;6.20;4.10;;;;;;;2.14;80.88;101193.36;180786;1263;59235;-86
2023/04/03 00:27:05;;;;;;;6.30;3.60;;;;;;;2.15;80.71;101191.23;180817;1263;44324;-86
2023/04/03 00:31:08;;;;;;;10.30;3.90;;;;;;;2.18;81.87;101192.55;180683;1263;44150;-85
2023/04/03 00:35:11;;;;;;;6.30;3.40;;;;;;;2.21;81.52;101190.37;180664;1263;44099;-86
2023/04/03 00:39:14;;;;;;;7.20;4.00;;;;;;;2.24;81.50;101192.88;180718;1263;44125;-86
2023/04/03 00:43:20;;;;;;;8.70;4.30;;;;;;;2.20;81.19;101194.60;180742;1264;57906;-85
2023/04/03 00:47:24;;;;;;;10.50;3.50;;;;;;;2.15;81.36;101197.37;180728;1263;44079;-85
2023/04/03 00:51:28;;;;;;;7.50;3.60;;;;;;;2.09;81.76;101202.46;180621;1263;43844;-85
2023/04/03 00:55:31;;;;;;;11.50;3.90;;;;;;;2.00;81.73;101200.98;180600;1263;44105;-85
2023/04/03 00:59:39;;;;;;;4.50;2.40;;;;;;;1.95;81.92;101207.95;180487;1264;43755;-85
2023/04/03 01:03:42;;;;;;;6.80;3.30;;;;;;;1.88;82.02;101209.73;180505;1263;57902;-85
2023/04/03 01:07:46;;;;;;;10.20;3.30;;;;;;;1.84;82.09;101207.92;180433;1263;43970;-85
2023/04/03 01:11:49;;;;;;;13.60;3.40;;;;;;;1.82;82.63;101208.73;180420;1264;43797;-85
2023/04/03 01:15:53;;;;;;;6.20;4.20;;;;;;;1.81;82.74;101204.20;180641;1263;44096;-85
2023/04/03 01:20:36;;;;;;;6.80;3.30;;;;;;;1.76;82.84;101210.10;180576;1263;43776;-85
2023/04/03 01:24:39;;;;;;;10.40;4.70;;;;;;;1.74;83.07;101215.41;180560;1264;59303;-85
2023/04/03 01:28:42;;;;;;;10.10;3.40;;;;;;;1.65;83.07;101211.84;180653;1263;44442;-84
2023/04/03 01:32:46;;;;;;;10.40;3.40;;;;;;;1.58;83.56;101215.71;180515;1263;43788;-85
2023/04/03 01:36:50;;;;;;;6.70;3.50;;;;;;;1.53;83.43;101221.42;180590;1263;43876;-85
2023/04/03 01:41:15;;;;;;;8.70;4.90;;;;;;;1.52;83.61;101225.84;180734;1263;43742;-85
2023/04/03 01:45:18;;;;;;;9.60;4.70;;;;;;;1.52;83.89;101227.77;180562;1263;58664;-85
2023/04/03 01:49:21;;;;;;;6.00;3.40;;;;;;;1.52;83.87;101226.90;180514;1263;44007;-86
2023/04/03 01:53:24;;;;;;;4.40;3.40;;;;;;;1.49;84.60;101233.30;180760;1263;43731;-85
2023/04/03 01:57:28;;;;;;;8.80;4.40;;;;;;;1.50;84.25;101237.62;180632;1264;44090;-85
2023/04/03 02:01:31;;;;;;;5.70;4.30;;;;;;;1.46;84.51;101236.52;180578;1263;43994;-85
2023/04/03 02:05:34;;;;;;;5.30;2.90;;;;;;;1.42;84.81;101243.45;180658;1264;59245;-85
2023/04/03 02:09:37;;;;;;;7.60;4.00;;;;;;;1.35;85.12;101241.02;180441;1264;43825;-85
2023/04/03 02:13:40;;;;;;;7.70;3.80;;;;;;;1.28;86.17;101237.52;180681;1262;43821;-85
2023/04/03 02:17:44;;;;;;;7.80;3.30;;;;;;;1.18;86.29;101241.13;180681;1262;44001;-85
2023/04/03 02:21:47;;;;;;;7.30;3.60;;;;;;;1.13;86.70;101238.98;180563;1263;43829;-85
2023/04/03 02:25:50;;;;;;;22.30;5.30;;;;;;;1.04;87.33;101241.15;180632;1264;59261;-85
2023/04/03 02:29:53;;;;;;;3.80;2.70;;;;;;;0.97;87.57;101243.41;180653;1262;43822;-84
2023/04/03 02:33:56;;;;;;;5.20;2.90;;;;;;;0.95;88.38;101248.54;180698;1263;44073;-85
2023/04/03 02:37:59;;;;;;;8.60;4.60;;;;;;;0.87;88.63;101255.03;180587;1263;44033;-85
2023/04/03 02:42:03;;;;;;;9.80;2.70;;;;;;;0.81;89.20;101255.89;180613;1263;44153;-85
2023/04/03 02:46:06;;;;;;;7.50;3.90;;;;;;;0.76;89.76;101256.01;180524;1264;58633;-84
2023/04/03 02:50:10;;;;;;;12.60;4.40;;;;;;;0.73;90.00;101254.86;180613;1264;43870;-85
2023/04/03 02:54:13;;;;;;;8.90;3.90;;;;;;;0.69;90.50;101257.21;180600;1263;43814;-85
2023/04/03 02:58:17;;;;;;;8.40;3.30;;;;;;;0.65;90.97;101257.52;180812;1263;44147;-85
2023/04/03 03:02:21;;;;;;;9.10;3.40;;;;;;;0.61;91.11;101260.21;180765;1262;43960;-86
2023/04/03 03:06:24;;;;;;;8.20;3.80;;;;;;;0.56;91.57;101262.25;180786;1264;59707;-85
2023/04/03 03:10:29;;;;;;;7.70;4.20;;;;;;;0.51;92.17;101264.13;180690;1263;43833;-86
2023/04/03 03:14:32;;;;;;;7.00;2.90;;;;;;;0.48;92.41;101268.39;180747;1263;43993;-85
2023/04/03 03:18:36;;;;;;;8.00;3.90;;;;;;;0.45;92.31;101269.17;180741;1263;44317;-85
2023/04/03 03:22:39;;;;;;;7.20;2.80;;;;;;;0.42;92.87;101269.92;180666;1263;44173;-86
2023/04/03 03:26:42;;;;;;;5.20;3.20;;;;;;;0.40;92.81;101268.94;180700;1264;57067;-85
2023/04/03 03:30:46;;;;;;;8.00;3.80;;;;;;;0.40;93.09;101266.48;180486;1263;44353;-86
2023/04/03 03:34:51;;;;;;;7.80;4.00;;;;;;;0.30;93.42;101268.10;180563;1263;44235;-85
2023/04/03 03:38:55;;;;;;;12.50;3.20;;;;;;;0.28;93.62;101271.30;180495;1264;44155;-85
2023/04/03 03:42:59;;;;;;;6.10;3.90;;;;;;;0.24;93.68;101272.79;180525;1264;43771;-85
2023/04/03 03:47:03;;;;;;;13.90;4.90;;;;;;;0.17;94.01;101273.13;180515;1263;59688;-85
2023/04/03 03:51:06;;;;;;;11.50;3.20;;;;;;;0.12;94.71;101281.08;180690;1263;44050;-86
2023/04/03 03:55:09;;;;;;;8.10;3.80;;;;;;;0.12;94.65;101283.86;180642;1267;43804;-85
2023/04/03 03:59:12;;;;;;;4.60;4.10;;;;;;;0.10;94.95;101285.48;180661;1263;43880;-85
2023/04/03 04:03:16;;;;;;;4.30;3.10;;;;;;;0.06;94.93;101285.03;180535;1264;44175;-85
2023/04/03 04:07:19;;;;;;;9.60;3.10;;;;;;;0.07;95.18;101289.73;180485;1264;58414;-86
2023/04/03 04:11:23;;;;;;;7.60;3.00;;;;;;;0.04;95.04;101288.94;180538;1264;44047;-85
2023/04/03 04:15:27;;;;;;;6.20;4.40;;;;;;;0.04;95.49;101290.51;180452;1263;44190;-83
2023/04/03 04:19:30;;;;;;;6.40;2.90;;;;;;;0.01;95.25;101294.22;180460;1264;43926;-85
2023/04/03 04:23:34;;;;;;;7.60;3.70;;;;;;;-0.01;95.39;101302.97;180663;1263;44053;-85
2023/04/03 04:27:37;;;;;;;12.10;3.60;;;;;;;-0.02;95.51;101307.00;180617;1264;58263;-86
2023/04/03 04:31:40;;;;;;;4.50;3.00;;;;;;;-0.03;95.60;101310.34;180726;1262;43982;-87
2023/04/03 04:35:43;;;;;;;12.00;4.60;;;;;;;-0.05;95.72;101311.77;180558;1263;43815;-86
2023/04/03 04:39:46;;;;;;;4.80;2.90;;;;;;;-0.01;96.04;101311.17;180645;1262;44079;-86
2023/04/03 04:43:50;;;;;;;14.30;4.70;;;;;;;-0.04;96.34;101314.38;180613;1264;43864;-86
2023/04/03 04:47:55;;;;;;;6.40;3.50;;;;;;;-0.01;96.34;101322.16;180382;1264;59599;-86
2023/04/03 04:51:59;;;;;;;4.90;3.10;;;;;;;0.07;96.09;101327.23;180628;1264;44039;-85
2023/04/03 04:56:02;;;;;;;8.40;3.80;;;;;;;0.61;95.39;101333.35;180705;1262;43830;-86
2023/04/03 05:00:05;;;;;;;10.80;4.50;;;;;;;1.38;91.83;101336.52;180622;1263;43779;-85
2023/04/03 05:04:12;;;;;;;14.40;4.60;;;;;;;2.10;87.79;101340.30;180577;1264;44265;-86
2023/04/03 05:08:17;;;;;;;6.30;4.00;;;;;;;2.73;84.27;101340.84;180486;1263;57375;-87
2023/04/03 05:12:21;;;;;;;4.50;3.70;;;;;;;3.29;80.90;101352.52;180568;1263;43866;-86
2023/04/03 05:16:25;;;;;;;8.70;3.80;;;;;;;3.68;77.95;101358.89;180582;1264;43720;-86
2023/04/03 05:20:28;;;;;;;14.20;4.20;;;;;;;3.98;75.62;101363.08;180606;1264;43812;-86
2023/04/03 05:24:31;;;;;;;8.30;3.90;;;;;;;4.23;74.79;101363.39;180709;1264;43997;-87
2023/04/03 05:28:34;;;;;;;10.50;5.90;;;;;;;4.51;73.94;101360.38;180732;1263;57578;-86
2023/04/03 05:32:38;;;;;;;5.80;3.90;;;;;;;4.78;72.16;101359.34;180732;1262;43721;-87
2023/04/03 05:36:42;;;;;;;12.90;6.90;;;;;;;4.93;70.83;101363.47;180574;1264;44020;-87
2023/04/03 05:40:45;;;;;;;13.80;6.90;;;;;;;5.03;70.31;101362.20;180453;1263;44146;-87
2023/04/03 05:44:49;;;;;;;8.80;5.80;;;;;;;5.04;70.68;101363.20;180584;1264;43859;-86
2023/04/03 05:48:53;;;;;;;6.70;3.10;;;;;;;4.96;69.76;101369.14;180657;1264;59595;-87
2023/04/03 05:52:58;;;;;;;7.70;3.90;;;;;;;4.86;70.40;101370.95;180507;1263;43820;-87
2023/04/03 05:57:01;;;;;;;5.50;3.70;;;;;;;4.81;70.87;101370.61;180506;1263;44162;-87
2023/04/03 06:01:05;;;;;;;4.90;3.10;;;;;;;4.83;70.63;101378.48;180495;1264;43939;-87
2023/04/03 06:05:11;;;;;;;8.40;2.70;;;;;;;4.91;70.95;101379.73;180656;1264;43813;-87
2023/04/03 06:09:15;;;;;;;7.20;3.30;;;;;;;4.76;70.83;101383.80;180486;1263;59775;-87
2023/04/03 06:13:18;;;;;;;4.30;2.60;;;;;;;4.71;71.37;101386.66;180541;1264;43941;-87
2023/04/03 06:17:21;;;;;;;5.40;3.80;;;;;;;4.65;71.81;101389.90;180691;1263;44191;-87
2023/04/03 06:21:24;;;;;;;7.70;3.90;;;;;;;4.66;71.33;101390.70;180484;1263;43798;-87
2023/04/03 06:25:28;;;;;;;6.00;2.60;;;;;;;4.62;72.21;101387.36;180755;1264;43922;-87
2023/04/03 06:29:31;;;;;;;9.90;4.00;;;;;;;4.57;72.34;101395.64;180742;1264;59901;-86
2023/04/03 06:33:34;;;;;;;7.30;4.30;;;;;;;4.62;72.62;101398.63;180610;1263;43983;-87
2023/04/03 06:37:38;;;;;;;7.10;4.40;;;;;;;4.63;72.83;101398.21;180620;1263;43866;-87
2023/04/03 06:41:41;;;;;;;6.50;3.30;;;;;;;4.61;72.77;101397.41;180667;1264;43656;-85
2023/04/03 06:45:45;;;;;;;4.50;3.10;;;;;;;4.66;73.02;101404.44;180494;1264;43917;-87
2023/04/03 06:49:48;;;;;;;6.50;3.00;;;;;;;4.68;72.05;101403.12;180633;1263;58521;-87
2023/04/03 06:53:53;;;;;;;7.00;3.30;;;;;;;4.70;72.58;101409.55;180567;1264;44116;-87
2023/04/03 06:57:56;;;;;;;8.40;3.90;;;;;;;4.67;72.13;101412.65;180584;1264;44198;-87
2023/04/03 07:01:59;;;;;;;7.10;3.00;;;;;;;4.67;72.43;101412.46;180531;1263;44292;-86
2023/04/03 07:06:05;;;;;;;5.30;2.80;;;;;;;4.79;73.30;101412.88;180548;1263;43902;-86
2023/04/03 07:10:09;;;;;;;5.30;2.90;;;;;;;4.94;71.54;101421.95;180652;1263;58383;-86
2023/04/03 07:14:13;;;;;;;4.80;2.80;;;;;;;4.97;71.32;101424.84;180463;1263;43818;-87
2023/04/03 07:18:19;;;;;;;8.20;2.60;;;;;;;4.97;71.06;101430.81;180649;1263;43760;-87
2023/04/03 07:22:22;;;;;;;6.70;4.10;;;;;;;4.95;70.82;101430.52;180521;1264;44237;-86
2023/04/03 07:26:26;;;;;;;4.20;2.50;;;;;;;4.86;70.28;101439.48;180527;1263;44050;-87
2023/04/03 07:30:30;;;;;;;12.00;3.80;;;;;;;4.78;69.97;101438.23;180508;1264;59617;-87
2023/04/03 07:34:34;;;;;;;5.10;2.30;;;;;;;4.68;69.62;101446.69;180643;1264;44190;-88
2023/04/03 07:38:37;;;;;;;7.90;2.50;;;;;;;4.42;70.23;101454.16;180517;1264;44090;-87
2023/04/03 07:42:41;;;;;;;3.50;1.90;;;;;;;4.27;71.02;101446.81;180399;1265;44146;-87
2023/04/03 07:46:46;;;;;;;3.40;1.90;;;;;;;4.31;72.65;101447.91;180287;1263;43969;-87
2023/04/03 07:50:50;;;;;;;3.90;2.30;;;;;;;4.24;70.55;101451.31;180436;1264;57619;-87
2023/04/03 07:54:53;;;;;;;4.90;2.50;;;;;;;4.30;70.89;101443.02;180547;1265;43937;-86
2023/04/03 07:58:57;;;;;;;4.50;2.40;;;;;;;4.55;73.28;101438.41;180468;1264;43915;-87
2023/04/03 08:03:01;;;;;;;13.50;2.80;;;;;;;4.76;71.26;101438.13;179671;1264;1039487;-87
2023/04/03 08:07:05;;;;;;;9.70;2.10;;;;;;;4.72;68.44;101444.25;180531;1267;44382;-87
2023/04/03 08:11:10;;;;;;;2.60;1.40;;;;;;;4.61;67.56;101443.29;180441;1265;58437;-87
2023/04/03 08:15:14;;;;;;;9.80;2.70;;;;;;;4.88;66.28;101432.23;180228;1264;44442;-87
2023/04/03 08:19:17;;;;;;;2.80;1.80;;;;;;;5.10;66.32;101434.16;180488;1264;53910;-87
2023/04/03 08:23:29;;;;;;;7.80;2.80;;;;;;;5.35;64.28;101432.46;180554;1265;44028;-86
2023/04/03 08:27:33;;;;;;;12.30;3.60;;;;;;;5.43;62.46;101433.71;180506;1264;44342;-87
2023/04/03 08:31:36;;;;;;;5.20;2.00;;;;;;;5.32;62.16;101437.83;180679;1262;57899;-87
2023/04/03 08:35:41;;;;;;;3.90;1.00;;;;;;;5.38;62.89;101442.52;180656;1262;43711;-87
2023/04/03 08:39:45;;;;;;;4.00;1.50;;;;;;;5.16;61.64;101439.72;180663;1262;43974;-87
2023/04/03 08:44:16;;;;;;;4.20;2.20;;;;;;;5.01;63.86;101440.48;180777;1262;44048;-87
2023/04/03 08:48:33;;;;;;;8.80;2.70;;;;;;;4.85;63.97;101437.60;180865;1264;43762;-85
2023/04/03 08:52:48;;;;;;;6.10;1.90;;;;;;;4.87;63.60;101432.27;180779;1262;57916;-86
2023/04/03 08:56:51;;;;;;;2.60;1.30;;;;;;;4.85;62.82;101432.52;180681;1264;44119;-88
2023/04/03 09:01:12;;;;;;;4.10;1.90;;;;;;;4.78;64.61;101437.35;180492;1264;44224;-87
2023/04/03 09:05:31;;;;;;;6.10;2.90;;;;;;;4.91;63.90;101443.51;180763;1262;43981;-87
2023/04/03 09:09:40;;;;;;;3.20;1.40;;;;;;;5.19;64.18;101434.52;180717;1262;47825;-86
2023/04/03 09:14:11;;;;;;;4.40;1.80;;;;;;;5.30;64.83;101434.96;180767;1262;56940;-87
2023/04/03 09:18:23;;;;;;;6.80;2.80;;;;;;;5.07;63.93;101447.13;180653;1264;43991;-87
2023/04/03 09:22:33;;;;;;;4.10;1.90;;;;;;;4.88;63.82;101442.95;180728;1263;43964;-87
2023/04/03 09:26:59;;;;;;;1.90;1.20;;;;;;;4.98;62.33;101444.67;180658;1264;43741;-86
2023/04/03 09:31:16;;;;;;;4.40;1.80;;;;;;;4.90;61.60;101441.44;180675;1262;43958;-86
2023/04/03 09:35:26;;;;;;;7.70;2.50;;;;;;;4.82;61.97;101442.66;180701;1262;58610;-86
2023/04/03 09:39:53;;;;;;;4.40;1.70;;;;;;;5.21;59.87;101435.48;180676;1262;43906;-86
2023/04/03 09:43:56;;;;;;;3.40;2.20;;;;;;;5.55;58.04;101445.85;180786;1262;43915;-87
2023/04/03 09:48:13;;;;;;;4.90;1.70;;;;;;;5.40;56.15;101445.08;180842;1263;44170;-86
2023/04/03 09:52:23;;;;;;;2.60;2.00;;;;;;;5.22;55.59;101439.63;180736;1262;43763;-87
2023/04/03 09:56:31;;;;;;;2.10;1.40;;;;;;;5.46;59.46;101438.15;180740;1262;61118;-86
2023/04/03 10:00:37;;;;;;;3.90;2.40;;;;;;;5.45;61.66;101438.19;180679;1262;44239;-86
2023/04/03 10:04:45;;;;;;;3.10;1.80;;;;;;;5.29;60.30;101434.99;180607;1264;43790;-87
2023/04/03 10:09:02;;;;;;;4.40;1.80;;;;;;;5.16;60.96;101432.89;180707;1262;44118;-87
2023/04/03 10:13:06;;;;;;;10.60;2.80;;;;;;;5.00;57.64;101426.49;180628;1262;44072;-87
2023/04/03 10:17:19;;;;;;;3.30;2.20;;;;;;;5.30;59.08;101425.79;180748;1262;58124;-87
2023/04/03 10:21:50;;;;;;;2.90;1.70;;;;;;;5.29;57.50;101429.35;180806;1263;44179;-86
2023/04/03 10:26:00;;;;;;;5.90;2.80;;;;;;;5.51;58.95;101424.20;180727;1262;43907;-86
2023/04/03 10:30:20;;;;;;;2.70;1.90;;;;;;;5.49;58.16;101430.47;180692;1263;44100;-87
2023/04/03 10:34:27;;;;;;;3.50;1.70;;;;;;;5.40;55.33;101428.52;180737;1262;43766;-87
2023/04/03 10:38:45;;;;;;;4.00;2.00;;;;;;;5.61;58.22;101419.95;180850;1262;57607;-87
2023/04/03 10:43:07;;;;;;;3.50;2.10;;;;;;;5.91;55.06;101422.66;180808;1262;43766;-87
2023/04/03 10:47:10;;;;;;;2.60;1.50;;;;;;;6.10;53.73;101416.77;180763;1262;44370;-87
2023/04/03 10:51:29;;;;;;;2.80;1.30;;;;;;;6.09;54.12;101406.96;180712;1264;44592;-86
2023/04/03 10:55:47;;;;;;;9.00;2.20;;;;;;;5.95;53.63;101409.86;180549;1264;43844;-86
2023/04/03 11:00:04;;;;;;;6.50;2.30;;;;;;;5.97;57.12;101416.42;180792;1262;59230;-86
2023/04/03 11:04:10;;;;;;;4.60;2.50;;;;;;;5.77;57.63;101413.08;180715;1262;44012;-86
2023/04/03 11:08:44;;;;;;;4.60;2.10;;;;;;;5.47;57.32;101412.94;180718;1262;43915;-87
2023/04/03 11:13:06;;;;;;;3.00;1.50;;;;;;;5.50;53.48;101402.98;180686;1262;43820;-86
2023/04/03 11:17:16;;;;;;;5.50;2.20;;;;;;;5.87;53.47;101387.66;180586;1262;43835;-87
2023/04/03 11:21:26;;;;;;;4.80;2.40;;;;;;;6.09;55.86;101390.40;180841;1263;59725;-87
2023/04/03 11:25:34;;;;;;;3.20;1.80;;;;;;;6.20;58.03;101400.84;180760;1264;43835;-86
2023/04/03 11:29:40;;;;;;;8.40;2.60;;;;;;;5.96;56.68;101397.67;180759;1264;43802;-86
2023/04/03 11:34:08;;;;;;;2.70;2.00;;;;;;;5.76;56.38;101396.23;180606;1264;43826;-87
2023/04/03 11:38:21;;;;;;;4.10;1.90;;;;;;;5.64;55.66;101399.39;180746;1263;44033;-86
2023/04/03 11:42:30;;;;;;;2.90;2.60;;;;;;;5.68;56.24;101399.39;180616;1264;58736;-87
2023/04/03 11:46:56;;;;;;;7.20;2.50;;;;;;;5.56;55.64;101396.89;180665;1264;43814;-87
2023/04/03 11:51:20;;;;;;;2.70;2.00;;;;;;;5.48;52.74;101395.47;180682;1264;43813;-86
2023/04/03 11:55:26;;;;;;;3.60;2.00;;;;;;;5.66;53.30;101383.80;180688;1264;43888;-87
2023/04/03 11:59:37;;;;;;;2.90;2.00;;;;;;;5.87;55.17;101395.05;180724;1264;44074;-87
2023/04/03 12:03:40;;;;;;;2.10;1.30;;;;;;;5.77;54.62;101399.02;180459;1264;59476;-87
2023/04/03 12:08:24;;;;;;;6.00;2.80;;;;;;;5.88;56.40;101391.14;180687;1264;43844;-87
2023/04/03 12:12:37;;;;;;;4.50;1.50;;;;;;;5.84;55.62;101393.08;180381;1264;43820;-86
2023/04/03 12:16:40;;;;;;;3.50;2.10;;;;;;;5.69;55.27;101396.02;180498;1264;43846;-86
2023/04/03 12:21:03;;;;;;;5.00;2.70;;;;;;;5.67;56.86;101389.42;180750;1264;43909;-86
2023/04/03 12:25:44;;;;;;;5.20;1.50;;;;;;;5.94;55.85;101390.16;180591;1264;59261;-87
2023/04/03 12:29:55;;;;;;;4.20;1.30;;;;;;;5.80;54.02;101394.45;180719;1264;44000;-87
2023/04/03 12:34:29;;;;;;;1.70;1.50;;;;;;;5.69;54.00;101384.95;180728;1264;43932;-87
2023/04/03 12:38:34;;;;;;;2.20;1.60;;;;;;;5.82;55.62;101383.81;180663;1264;44107;-86
2023/04/03 12:43:01;;;;;;;5.10;3.10;;;;;;;6.22;54.95;101372.58;180695;1264;43846;-87
2023/04/03 12:47:32;;;;;;;2.10;1.70;;;;;;;6.35;54.06;101387.13;180687;1264;59689;-87
2023/04/03 12:51:41;;;;;;;5.30;2.60;;;;;;;6.13;51.71;101382.48;180679;1264;43890;-86
2023/04/03 12:55:44;;;;;;;2.80;2.10;;;;;;;6.24;51.49;101375.83;180693;1263;43696;-86
2023/04/03 12:59:47;;;;;;;2.50;2.00;;;;;;;6.47;52.21;101369.48;180596;1264;44143;-83
2023/04/03 13:03:54;;;;;;;2.50;2.30;;;;;;;6.73;52.26;101357.84;180441;1264;43881;-84
2023/04/03 13:08:04;;;;;;;10.80;3.40;;;;;;;6.75;52.44;101369.91;180578;1264;59860;-81
2023/04/03 13:12:14;;;;;;;7.30;4.70;;;;;;;6.43;50.28;101373.70;180396;1264;43893;-83
2023/04/03 13:16:17;;;;;;;5.20;2.50;;;;;;;6.19;52.11;101375.87;180565;1264;43852;-82
2023/04/03 13:20:23;;;;;;;3.70;3.00;;;;;;;6.15;54.95;101378.54;180530;1262;44199;-85
2023/04/03 13:24:26;;;;;;;4.80;3.60;;;;;;;6.29;55.84;101367.47;180519;1263;44190;-84
2023/04/03 13:28:31;;;;;;;17.60;2.90;;;;;;;6.32;56.33;101359.27;180591;1264;59955;-84
2023/04/03 13:32:35;;;;;;;4.00;2.70;;;;;;;6.19;52.42;101362.48;180628;1264;44132;-84
2023/04/03 13:36:44;;;;;;;8.60;2.70;;;;;;;6.22;53.06;101350.19;180366;1264;43964;-84
2023/04/03 13:41:02;;;;;;;2.60;2.00;;;;;;;6.49;53.39;101352.98;180526;1264;44097;-84
2023/04/03 13:45:28;;;;;;;3.90;2.50;;;;;;;6.56;53.92;101363.40;180570;1264;43901;-84
2023/04/03 13:49:41;;;;;;;4.80;3.00;;;;;;;6.40;54.48;101359.20;180384;1264;59910;-84
2023/04/03 13:53:47;;;;;;;2.80;2.00;;;;;;;6.22;53.34;101369.76;180389;1264;44203;-83
2023/04/03 13:58:18;;;;;;;10.30;2.90;;;;;;;6.08;53.19;101370.02;180477;1268;44128;-83
2023/04/03 14:02:30;;;;;;;4.10;2.80;;;;;;;6.16;52.30;101361.04;180589;1264;43848;-83
2023/04/03 14:06:34;;;;;;;3.00;2.30;;;;;;;6.38;52.87;101351.73;180343;1264;43840;-83
2023/04/03 14:10:38;;;;;;;4.70;1.70;;;;;;;6.37;52.56;101355.14;180657;1265;59808;-85
2023/04/03 14:14:42;;;;;;;4.60;3.20;;;;;;;6.30;53.40;101353.17;180342;1264;44242;-84
2023/04/03 14:18:46;;;;;;;3.30;2.30;;;;;;;6.31;53.63;101350.33;180567;1266;43826;-84
2023/04/03 14:22:51;;;;;;;4.00;2.20;;;;;;;6.32;52.22;101347.79;180361;1264;44256;-84
2023/04/03 14:26:55;;;;;;;3.60;2.50;;;;;;;6.24;51.93;101356.97;180325;1267;44028;-84
2023/04/03 14:30:58;;;;;;;3.60;1.90;;;;;;;6.12;53.09;101354.36;180455;1263;58547;-85
2023/04/03 14:35:03;;;;;;;3.50;2.90;;;;;;;5.98;54.78;101358.48;180385;1262;44159;-84
2023/04/03 14:39:08;;;;;;;2.80;2.60;;;;;;;5.86;55.06;101352.50;180504;1264;44113;-84
2023/04/03 14:43:12;;;;;;;3.90;2.20;;;;;;;5.80;56.69;101352.20;180433;1264;44303;-83
2023/04/03 14:47:20;;;;;;;4.30;2.50;;;;;;;5.74;55.84;101357.58;180346;1264;44247;-84
2023/04/03 14:51:34;;;;;;;5.80;2.80;;;;;;;5.75;55.73;101353.17;180417;1263;60516;-84
2023/04/03 14:55:36;;;;;;;3.20;2.60;;;;;;;5.67;53.61;101351.19;180591;1264;44367;-85
2023/04/03 14:59:40;;;;;;;8.00;2.90;;;;;;;5.77;54.11;101354.63;180492;1264;44210;-85
2023/04/03 15:03:43;;;;;;;4.80;2.50;;;;;;;5.79;51.57;101347.52;180521;1264;43760;-84
2023/04/03 15:07:53;;;;;;;3.90;2.70;;;;;;;5.77;52.43;101344.42;180588;1264;43834;-84
2023/04/03 15:11:56;;;;;;;4.80;3.10;;;;;;;5.71;53.18;101343.27;180391;1263;58597;-84
2023/04/03 15:16:00;;;;;;;4.50;3.00;;;;;;;5.60;55.93;101349.57;180651;1263;44416;-85
2023/04/03 15:20:11;;;;;;;5.00;2.70;;;;;;;5.52;56.14;101349.73;180465;1264;44174;-85
2023/04/03 15:24:14;;;;;;;4.10;2.70;;;;;;;5.43;56.09;101348.39;180572;1264;44086;-85
2023/04/03 15:28:31;;;;;;;3.80;2.50;;;;;;;5.42;57.00;101349.98;180515;1264;43830;-85
2023/04/03 15:32:35;;;;;;;6.10;3.40;;;;;;;5.38;56.73;101357.91;180588;1264;57062;-85
2023/04/03 15:36:39;;;;;;;3.50;2.60;;;;;;;5.36;56.94;101365.92;180497;1264;43882;-85
2023/04/03 15:40:43;;;;;;;5.00;2.30;;;;;;;5.31;56.39;101362.77;180543;1264;44047;-85
2023/04/03 15:44:46;;;;;;;4.70;1.90;;;;;;;5.27;56.47;101365.91;180449;1264;44185;-85
2023/04/03 15:48:49;;;;;;;4.00;2.40;;;;;;;5.22;55.39;101368.45;180548;1263;44140;-85
2023/04/03 15:52:57;;;;;;;6.50;2.20;;;;;;;5.18;57.24;101364.88;180581;1264;58086;-85
2023/04/03 15:57:00;;;;;;;12.10;4.00;;;;;;;5.16;56.58;101366.92;180534;1264;44144;-85
2023/04/03 16:01:05;;;;;;;5.40;3.90;;;;;;;5.16;57.02;101366.40;180763;1263;44384;-85
2023/04/03 16:05:10;;;;;;;5.90;3.50;;;;;;;5.15;57.13;101371.53;180465;1264;45357;-84
2023/04/03 16:09:11;;;;;;;6.80;2.80;;;;;;;5.14;57.82;101368.42;180180;1262;43906;-84
2023/04/03 16:13:15;;;;;;;5.70;3.70;;;;;;;5.11;58.08;101368.19;180546;1263;58110;-85
2023/04/03 16:17:18;;;;;;;4.50;3.00;;;;;;;5.11;60.56;101360.80;180491;1263;43771;-85
2023/04/03 16:21:22;;;;;;;5.80;2.90;;;;;;;5.09;61.49;101361.94;180591;1264;44325;-84
2023/04/03 16:25:26;;;;;;;3.80;2.90;;;;;;;5.04;59.31;101368.64;180512;1264;43957;-85
2023/04/03 16:29:29;;;;;;;6.50;2.50;;;;;;;5.03;59.76;101370.46;180518;1264;43899;-85
2023/04/03 16:33:33;;;;;;;6.90;3.80;;;;;;;5.03;58.28;101375.21;180663;1264;58249;-85
2023/04/03 16:37:40;;;;;;;4.80;3.10;;;;;;;4.98;58.52;101375.58;180593;1264;43951;-85
2023/04/03 16:41:45;;;;;;;3.10;2.80;;;;;;;4.93;58.59;101380.02;180632;1262;44007;-85
2023/04/03 16:45:47;;;;;;;5.80;3.70;;;;;;;4.89;59.62;101378.94;180530;1263;43858;-83
2023/04/03 16:49:50;;;;;;;3.70;3.30;;;;;;;4.85;59.38;101377.65;180495;1264;44270;-85
2023/04/03 16:53:53;;;;;;;5.90;3.60;;;;;;;4.82;59.89;101378.66;180497;1264;56999;-82
2023/04/03 16:57:57;;;;;;;5.90;4.80;;;;;;;4.80;61.39;101377.71;180545;1263;43978;-83
2023/04/03 17:02:00;;;;;;;7.50;4.80;;;;;;;4.75;62.59;101375.59;180449;1263;44225;-83
2023/04/03 17:06:03;;;;;;;4.40;3.40;;;;;;;4.78;63.49;101375.86;180565;1263;44018;-82
2023/04/03 17:10:06;;;;;;;6.20;4.10;;;;;;;4.75;63.92;101370.86;180510;1264;43937;-83
2023/04/03 17:14:09;;;;;;;8.20;4.40;;;;;;;4.73;64.97;101369.54;180528;1263;57376;-83
2023/04/03 17:18:13;;;;;;;5.40;3.70;;;;;;;4.69;64.67;101371.09;180593;1262;44028;-83
2023/04/03 17:22:16;;;;;;;9.50;4.20;;;;;;;4.67;64.33;101369.94;180447;1263;44030;-83
2023/04/03 17:26:21;;;;;;;4.00;3.00;;;;;;;4.71;65.21;101371.00;180654;1263;43741;-83
2023/04/03 17:30:24;;;;;;;5.60;3.80;;;;;;;4.75;65.69;101382.30;180436;1264;43842;-84
2023/04/03 17:34:27;;;;;;;4.20;3.20;;;;;;;4.76;65.91;101387.01;180487;1264;58408;-83
2023/04/03 17:38:32;;;;;;;5.70;3.70;;;;;;;4.73;65.25;101388.88;180382;1262;43883;-83
2023/04/03 17:42:35;;;;;;;6.40;4.00;;;;;;;4.70;63.93;101392.84;180379;1266;44195;-82
2023/04/03 17:46:38;;;;;;;5.60;4.30;;;;;;;4.67;62.34;101396.45;180567;1262;44413;-83
2023/04/03 17:50:41;;;;;;;7.30;5.30;;;;;;;4.67;62.87;101392.64;180554;1262;43828;-83
2023/04/03 17:54:44;;;;;;;25.60;13.50;;;;;;;4.65;62.25;101393.89;180560;1263;59233;-83
2023/04/03 17:58:48;;;;;;;22.00;13.80;;;;;;;4.70;61.62;101393.20;180474;1263;44118;-83
2023/04/03 18:02:53;;;;;;;13.70;9.00;;;;;;;4.73;61.18;101391.86;180560;1264;44163;-82
2023/04/03 18:06:56;;;;;;;13.00;6.50;;;;;;;4.76;62.21;101391.41;180600;1263;44197;-83
2023/04/03 18:10:59;;;;;;;7.60;4.70;;;;;;;4.76;62.27;101390.36;180590;1263;43942;-83
2023/04/03 18:15:03;;;;;;;5.20;3.70;;;;;;;4.74;63.20;101392.35;180501;1263;59795;-83
2023/04/03 18:19:08;;;;;;;6.00;3.60;;;;;;;4.69;63.56;101394.27;180583;1263;44224;-82
2023/04/03 18:23:27;;;;;;;13.40;3.10;;;;;;;4.61;62.39;101398.48;180415;1264;44274;-82
2023/04/03 18:27:30;;;;;;;8.10;3.30;;;;;;;4.54;62.24;101398.38;180541;1263;44205;-83
2023/04/03 18:31:35;;;;;;;3.40;2.70;;;;;;;4.51;61.12;101400.78;180563;1264;48190;-82
2023/04/03 18:35:38;;;;;;;3.00;2.40;;;;;;;4.49;59.89;101405.98;180693;1263;57917;-82
2023/04/03 18:39:41;;;;;;;6.30;3.80;;;;;;;4.47;60.43;101404.44;180647;1263;44294;-82
2023/04/03 18:43:44;;;;;;;4.10;2.50;;;;;;;4.43;59.47;101401.80;180398;1264;43875;-82
2023/04/03 18:47:47;;;;;;;4.60;2.80;;;;;;;4.38;58.20;101407.59;180614;1263;43919;-82
2023/04/03 18:51:50;;;;;;;7.10;3.90;;;;;;;4.32;57.03;101413.09;180614;1262;43713;-82
2023/04/03 18:55:53;;;;;;;5.30;2.60;;;;;;;4.31;58.16;101409.10;180465;1264;58408;-82
2023/04/03 18:59:56;;;;;;;5.50;3.20;;;;;;;4.27;59.00;101407.48;180445;1263;43870;-82
2023/04/03 19:03:59;;;;;;;6.80;1.80;;;;;;;4.26;59.81;101401.02;180336;1264;44110;-83
2023/04/03 19:08:03;;;;;;;6.90;3.00;;;;;;;4.21;59.39;101403.32;180534;1263;44036;-84